Hotwells, Louisiana
Current Conditions -  °F | °C
As of 6:53 AM on Tuesday 21 Oct 2014 (Local Time) from KAEX Reporting Station
Haze Haze  
Wind Chill: 54°   Ceiling: Unl
Heat Index: 54°   Visibility: 6mi
Dew Point: 53°   Wind: 0mph
Humidity: 97%   Direction: NA
Pressure: 30.06"   Gusts: NA
Location:  31.3168°N, 92.7338°W
Report Text: KAEX 211153Z 00000KT 6SM BR CLR 12/12 A3006 RMK AO2 SLP181 T01220117 10139 20117 53016
Loading
Personal Weather Stations






























Interactive Weather Map
Tropical Storm Tracking
New forecast layout! Learn more

10-Day Weather Forecast

Advertisements
Track Severe Weather on mobile